Time;durP1;ratioP1;P1;durP2;ratioP2;P2;SDS_P1;SDS_P2;PMS_P1;PMS_P2;Temp;Humidity;BMP_temperature;BMP_pressure;BME280_temperature;BME280_humidity;BME280_pressure;Samples;Min_cycle;Max_cycle;Signal;HPM_P1;HPM_P2
2021/03/06 00:00:07;;;;;;;4.37;0.83;;;1.20;80.70;;;;;;4630530;30;20108;-79
2021/03/06 00:02:35;;;;;;;5.17;0.60;;;1.20;80.70;;;;;;4626928;30;20057;-79
2021/03/06 00:05:01;;;;;;;7.30;1.10;;;1.20;80.70;;;;;;4609766;30;20506;-79
2021/03/06 00:07:28;;;;;;;2.60;0.50;;;1.20;80.60;;;;;;4658867;30;20064;-79
2021/03/06 00:09:55;;;;;;;6.67;0.80;;;1.20;80.50;;;;;;4644540;30;20050;-79
2021/03/06 00:12:21;;;;;;;7.47;0.97;;;1.20;80.70;;;;;;4615105;30;20053;-80
2021/03/06 00:14:48;;;;;;;6.87;0.70;;;1.20;80.80;;;;;;4615232;30;20468;-79
2021/03/06 00:17:15;;;;;;;2.70;0.40;;;1.10;80.60;;;;;;4630198;30;20054;-79
2021/03/06 00:19:41;;;;;;;9.80;0.60;;;1.10;80.50;;;;;;4642983;30;20045;-78
2021/03/06 00:22:08;;;;;;;6.37;0.60;;;1.10;80.50;;;;;;4642873;30;20054;-79
2021/03/06 00:24:34;;;;;;;5.03;0.50;;;1.00;80.50;;;;;;4645345;30;20051;-80
2021/03/06 00:27:01;;;;;;;2.53;0.50;;;1.00;80.50;;;;;;4644200;30;20068;-79
2021/03/06 00:29:27;;;;;;;5.80;0.50;;;1.00;80.50;;;;;;4642821;30;20101;-79
2021/03/06 00:31:54;;;;;;;4.93;0.67;;;1.00;80.50;;;;;;4642401;30;20076;-79
2021/03/06 00:34:21;;;;;;;3.50;0.50;;;0.90;80.40;;;;;;4630112;30;20050;-83
2021/03/06 00:36:48;;;;;;;7.63;2.27;;;0.90;80.40;;;;;;4615727;30;20054;-80
2021/03/06 00:39:14;;;;;;;3.90;1.20;;;0.90;80.80;;;;;;4626026;30;20058;-80
2021/03/06 00:41:41;;;;;;;7.23;0.80;;;0.80;80.70;;;;;;4629568;30;20054;-80
2021/03/06 00:44:08;;;;;;;4.57;0.70;;;0.70;80.60;;;;;;4658270;30;20062;-80
2021/03/06 00:46:34;;;;;;;6.13;1.47;;;0.70;80.70;;;;;;4614815;30;20058;-80
2021/03/06 00:49:01;;;;;;;2.87;0.93;;;0.60;80.70;;;;;;4630320;30;20068;-80
2021/03/06 00:51:28;;;;;;;5.67;0.73;;;0.50;80.80;;;;;;4631589;30;20057;-79
2021/03/06 00:53:54;;;;;;;5.30;0.50;;;0.50;80.90;;;;;;4629849;30;20059;-79
2021/03/06 00:56:22;;;;;;;6.17;0.57;;;0.40;81.00;;;;;;4625090;30;20062;-80
2021/03/06 00:58:48;;;;;;;3.87;0.60;;;0.40;81.20;;;;;;4658793;30;20149;-80
2021/03/06 01:01:15;;;;;;;6.70;0.80;;;0.30;81.20;;;;;;4641073;30;20054;-80
2021/03/06 01:03:42;;;;;;;6.67;0.80;;;0.30;81.20;;;;;;4657980;30;20051;-80
2021/03/06 01:06:08;;;;;;;6.70;1.07;;;0.20;81.40;;;;;;4618885;30;20091;-81
2021/03/06 01:08:35;;;;;;;3.97;0.80;;;0.20;81.50;;;;;;4614597;30;20205;-80
2021/03/06 01:11:03;;;;;;;6.70;0.90;;;0.10;81.50;;;;;;4630267;30;20054;-80
2021/03/06 01:13:31;;;;;;;4.77;0.90;;;0.10;81.60;;;;;;4658705;30;20433;-81
2021/03/06 01:15:57;;;;;;;3.63;0.90;;;0.00;81.70;;;;;;4630221;30;20894;-80
2021/03/06 01:18:24;;;;;;;6.10;1.13;;;0.00;81.80;;;;;;4615610;30;20050;-81
2021/03/06 01:20:51;;;;;;;5.23;1.07;;;0.00;81.80;;;;;;4658679;30;20050;-80
2021/03/06 01:23:17;;;;;;;3.97;0.60;;;0.00;81.90;;;;;;4629830;30;20125;-80
2021/03/06 01:25:44;;;;;;;3.77;0.70;;;-0.10;81.90;;;;;;4630423;30;20058;-80
2021/03/06 01:28:11;;;;;;;3.67;0.80;;;0.00;82.00;;;;;;4615000;30;20189;-81
2021/03/06 01:30:37;;;;;;;5.27;0.70;;;0.00;82.00;;;;;;4644709;30;20050;-80
2021/03/06 01:33:04;;;;;;;7.13;0.70;;;0.00;82.00;;;;;;4612841;30;20061;-80
2021/03/06 01:35:31;;;;;;;2.73;0.50;;;0.00;82.00;;;;;;4629660;30;20043;-81
2021/03/06 01:37:58;;;;;;;3.67;0.87;;;0.00;82.00;;;;;;4628586;30;20053;-80
2021/03/06 01:40:31;;;;;;;3.43;0.40;;;0.00;81.90;;;;;;4630360;30;20058;-80
2021/03/06 01:42:59;;;;;;;3.85;0.40;;;0.00;81.90;;;;;;4629797;30;20050;-81
2021/03/06 01:45:26;;;;;;;5.43;0.50;;;0.00;81.90;;;;;;4616455;30;20057;-81
2021/03/06 01:47:52;;;;;;;4.10;0.60;;;-0.10;81.90;;;;;;4616749;30;20055;-80
2021/03/06 01:50:29;;;;;;;3.03;0.40;;;-0.10;82.10;;;;;;4605403;30;20519;-81
2021/03/06 01:52:56;;;;;;;3.97;0.50;;;-0.10;82.20;;;;;;4646005;30;20050;-81
2021/03/06 01:55:25;;;;;;;3.63;0.40;;;-0.10;82.20;;;;;;4632359;30;20480;-81
2021/03/06 01:57:52;;;;;;;2.80;0.30;;;-0.10;82.20;;;;;;4644667;30;20515;-81
2021/03/06 02:00:20;;;;;;;4.10;0.50;;;-0.10;82.20;;;;;;4636725;30;20042;-80
2021/03/06 02:02:51;;;;;;;5.30;0.50;;;-0.10;82.40;;;;;;4641065;30;20058;-80
2021/03/06 02:05:18;;;;;;;8.57;0.50;;;-0.10;82.50;;;;;;4608262;30;20050;-80
2021/03/06 02:07:45;;;;;;;3.67;0.50;;;-0.10;82.50;;;;;;4645610;30;20159;-80
2021/03/06 02:10:13;;;;;;;11.63;0.80;;;-0.10;82.80;;;;;;4619130;30;20038;-81
2021/03/06 02:13:13;;;;;;;3.87;0.80;;;-0.10;83.10;;;;;;4642480;30;20062;-80
2021/03/06 02:16:03;;;;;;;4.97;0.60;;;-0.10;83.50;;;;;;4618988;30;20066;-81
2021/03/06 02:18:37;;;;;;;2.33;0.40;;;-0.10;83.30;;;;;;4641726;30;20055;-81
2021/03/06 02:21:24;;;;;;;2.57;0.40;;;-0.10;83.20;;;;;;4658816;30;20175;-80
2021/03/06 02:24:30;;;;;;;3.50;0.40;;;-0.20;83.30;;;;;;4609675;30;20057;-80
2021/03/06 02:27:08;;;;;;;2.53;0.30;;;-0.20;83.30;;;;;;4630770;30;20055;-80
2021/03/06 02:29:55;;;;;;;2.13;0.40;;;-0.20;83.30;;;;;;4630154;30;20415;-80
2021/03/06 02:32:31;;;;;;;3.80;0.40;;;-0.20;83.40;;;;;;4645588;30;20069;-80
2021/03/06 02:35:08;;;;;;;3.03;0.40;;;-0.30;83.40;;;;;;4644686;30;20046;-81
2021/03/06 02:37:48;;;;;;;3.77;0.50;;;-0.30;83.40;;;;;;4644076;30;20055;-80
2021/03/06 02:40:15;;;;;;;3.80;0.60;;;-0.30;83.50;;;;;;4645639;30;20045;-81
2021/03/06 02:42:43;;;;;;;2.23;0.30;;;-0.30;83.40;;;;;;4617029;30;20054;-80
2021/03/06 02:45:10;;;;;;;3.40;0.47;;;-0.30;83.60;;;;;;4645276;30;20115;-80
2021/03/06 02:47:37;;;;;;;2.63;0.30;;;-0.30;83.60;;;;;;4602882;30;20046;-80
2021/03/06 02:50:08;;;;;;;2.87;0.40;;;-0.30;83.60;;;;;;4604172;30;20038;-80
2021/03/06 02:52:35;;;;;;;2.13;0.40;;;-0.30;83.60;;;;;;4644562;30;20062;-80
2021/03/06 02:55:03;;;;;;;3.83;0.60;;;-0.30;83.70;;;;;;4604842;30;20057;-80
2021/03/06 02:57:51;;;;;;;2.97;0.40;;;-0.30;84.40;;;;;;4608093;30;20502;-80
2021/03/06 03:00:24;;;;;;;2.63;0.30;;;-0.30;83.80;;;;;;4618088;30;20051;-81
2021/03/06 03:03:10;;;;;;;5.83;0.30;;;-0.30;83.90;;;;;;4642761;30;20054;-80
2021/03/06 03:06:10;;;;;;;2.50;0.37;;;-0.20;84.10;;;;;;4609683;30;20073;-80
2021/03/06 03:09:09;;;;;;;3.37;0.50;;;-0.30;84.20;;;;;;4643585;30;20050;-80
2021/03/06 03:11:41;;;;;;;6.77;0.47;;;-0.20;84.60;;;;;;4646104;30;20831;-80
2021/03/06 03:14:11;;;;;;;3.25;0.60;;;-0.20;84.60;;;;;;4644347;30;20531;-80
2021/03/06 03:16:53;;;;;;;9.57;0.93;;;-0.20;84.70;;;;;;4610474;30;20054;-80
2021/03/06 03:19:35;;;;;;;2.28;0.40;;;-0.20;85.20;;;;;;4628985;30;20050;-80
2021/03/06 03:22:05;;;;;;;4.23;0.50;;;-0.20;85.30;;;;;;4618669;30;20407;-80
2021/03/06 03:24:39;;;;;;;3.90;0.60;;;-0.20;85.20;;;;;;4644510;30;20050;-80
2021/03/06 03:27:09;;;;;;;1.77;0.40;;;-0.20;85.20;;;;;;4645835;30;20408;-80
2021/03/06 03:29:41;;;;;;;8.27;0.67;;;-0.30;85.10;;;;;;4644620;30;20053;-80
2021/03/06 03:32:10;;;;;;;;;;;-0.30;85.40;;;;;;4614255;30;20049;-80
2021/03/06 03:34:37;;;;;;;2.60;0.40;;;-0.30;86.10;;;;;;4660718;30;19919;-80
2021/03/06 03:37:07;;;;;;;6.47;0.50;;;-0.30;85.50;;;;;;4630870;30;20582;-81
2021/03/06 03:39:35;;;;;;;2.57;0.40;;;-0.30;85.60;;;;;;4642079;30;20058;-81
2021/03/06 03:42:03;;;;;;;5.27;0.50;;;-0.40;85.60;;;;;;4644371;30;20058;-81
2021/03/06 03:44:31;;;;;;;5.17;0.60;;;-0.40;85.70;;;;;;4617178;30;20066;-80
2021/03/06 03:46:58;;;;;;;3.63;0.43;;;-0.40;86.30;;;;;;4617671;30;20065;-81
2021/03/06 03:49:25;;;;;;;2.83;0.40;;;-0.40;85.70;;;;;;4617141;30;20046;-80
2021/03/06 03:51:54;;;;;;;5.57;0.40;;;-0.40;85.80;;;;;;4646053;30;20068;-80
2021/03/06 03:54:21;;;;;;;4.50;0.50;;;-0.50;85.90;;;;;;4630354;30;20046;-81
2021/03/06 03:56:49;;;;;;;4.20;0.57;;;-0.50;85.90;;;;;;4630969;30;20081;-80
2021/03/06 03:59:15;;;;;;;4.10;0.50;;;-0.50;86.10;;;;;;4644118;30;20468;-80
2021/03/06 04:01:44;;;;;;;4.63;0.50;;;-0.60;86.00;;;;;;4629042;30;20046;-78
2021/03/06 04:04:30;;;;;;;3.13;0.50;;;-0.60;86.10;;;;;;4644548;30;20644;-77
2021/03/06 04:06:59;;;;;;;3.70;0.40;;;-0.60;86.30;;;;;;4643243;30;20055;-78
2021/03/06 04:09:26;;;;;;;4.73;0.40;;;-0.60;86.90;;;;;;4630283;30;20042;-81
2021/03/06 04:11:54;;;;;;;2.73;0.40;;;-0.70;86.30;;;;;;4642989;30;20503;-81
2021/03/06 04:14:20;;;;;;;4.13;1.43;;;-0.60;86.40;;;;;;4616275;30;20050;-81
2021/03/06 04:16:47;;;;;;;7.00;1.07;;;-0.70;86.30;;;;;;4613192;30;20050;-81
2021/03/06 04:19:14;;;;;;;6.00;0.70;;;-0.70;86.40;;;;;;4630211;30;20057;-82
2021/03/06 04:21:41;;;;;;;4.37;0.60;;;-0.70;86.40;;;;;;4628242;30;20050;-85
2021/03/06 04:24:08;;;;;;;4.50;0.50;;;-0.70;86.40;;;;;;4613269;30;20062;-79
2021/03/06 04:26:34;;;;;;;7.53;0.40;;;-0.70;86.40;;;;;;4623500;30;20063;-81
2021/03/06 04:29:01;;;;;;;2.40;0.40;;;-0.70;86.50;;;;;;4616782;30;20053;-79
2021/03/06 04:31:28;;;;;;;1.53;0.40;;;-0.70;86.50;;;;;;4643835;30;20053;-82
2021/03/06 04:33:54;;;;;;;3.13;0.50;;;-0.70;86.60;;;;;;4629667;30;20050;-81
2021/03/06 04:36:21;;;;;;;5.53;1.77;;;-0.80;86.60;;;;;;4628592;30;20063;-81
2021/03/06 04:38:47;;;;;;;107.33;55.63;;;-0.80;86.60;;;;;;4612036;30;20055;-81
2021/03/06 04:41:14;;;;;;;17.03;6.63;;;-0.80;86.70;;;;;;4660381;30;20530;-80
2021/03/06 04:43:40;;;;;;;9.20;3.40;;;-0.80;86.80;;;;;;4612860;30;20411;-80
2021/03/06 04:46:07;;;;;;;7.57;2.77;;;-0.80;86.90;;;;;;4614279;30;20062;-80
2021/03/06 04:48:35;;;;;;;5.93;1.53;;;-0.90;86.80;;;;;;4610993;30;20053;-80
2021/03/06 04:51:02;;;;;;;6.20;1.50;;;-0.90;86.90;;;;;;4644204;30;20415;-80
2021/03/06 04:53:29;;;;;;;2.63;0.70;;;-0.90;86.90;;;;;;4628866;30;20054;-79
2021/03/06 04:55:56;;;;;;;3.27;0.73;;;-1.00;86.90;;;;;;4630868;30;20061;-80
2021/03/06 04:58:22;;;;;;;3.70;0.80;;;-1.00;87.00;;;;;;4613399;30;20415;-80
2021/03/06 05:00:49;;;;;;;5.10;0.73;;;-1.00;87.70;;;;;;4644587;30;20053;-80
2021/03/06 05:03:16;;;;;;;2.03;0.60;;;-1.00;87.10;;;;;;4644649;30;20050;-81
2021/03/06 05:05:42;;;;;;;6.60;0.57;;;-1.00;87.10;;;;;;4599901;30;20069;-81
2021/03/06 05:08:09;;;;;;;3.03;0.50;;;-1.00;87.20;;;;;;4611207;30;20602;-81
2021/03/06 05:10:35;;;;;;;6.73;0.60;;;-1.00;87.20;;;;;;4630026;30;20415;-81
2021/03/06 05:13:02;;;;;;;5.23;0.60;;;-1.00;87.30;;;;;;4644069;30;20050;-81
2021/03/06 05:15:29;;;;;;;3.70;0.40;;;-1.00;87.30;;;;;;4624283;30;20526;-80
2021/03/06 05:17:55;;;;;;;3.77;0.50;;;-1.00;87.30;;;;;;4607977;30;20054;-81
2021/03/06 05:20:22;;;;;;;3.07;0.50;;;-1.00;87.90;;;;;;4618510;30;20058;-80
2021/03/06 05:22:48;;;;;;;5.17;0.57;;;-1.00;87.50;;;;;;4629134;30;20050;-81
2021/03/06 05:25:15;;;;;;;7.77;1.00;;;-1.00;87.50;;;;;;4601996;30;20053;-80
2021/03/06 05:27:42;;;;;;;3.93;0.60;;;-1.00;87.50;;;;;;4615938;30;20598;-81
2021/03/06 05:30:09;;;;;;;7.03;0.53;;;-0.90;87.50;;;;;;4596952;30;20054;-80
2021/03/06 05:32:36;;;;;;;6.43;0.70;;;-0.90;87.60;;;;;;4616767;30;20051;-80
2021/03/06 05:35:03;;;;;;;4.40;0.60;;;-0.90;87.60;;;;;;4615683;30;20065;-80
2021/03/06 05:37:30;;;;;;;5.10;0.73;;;-0.90;87.60;;;;;;4629816;30;20850;-78
2021/03/06 05:39:56;;;;;;;5.00;0.60;;;-0.90;87.60;;;;;;4646780;30;20053;-78
2021/03/06 05:42:23;;;;;;;9.80;2.20;;;-0.90;87.60;;;;;;4630464;30;20050;-82
2021/03/06 05:44:52;;;;;;;3.37;0.80;;;-0.90;87.70;;;;;;4643146;30;20196;-82
2021/03/06 05:47:19;;;;;;;8.20;1.20;;;-0.90;87.80;;;;;;4643871;30;20042;-80
2021/03/06 05:49:45;;;;;;;4.07;0.80;;;-0.90;87.80;;;;;;4614110;30;20039;-80
2021/03/06 05:52:17;;;;;;;4.03;0.57;;;-0.90;87.80;;;;;;4614992;30;20063;-80
2021/03/06 05:54:47;;;;;;;3.30;0.50;;;-0.90;87.90;;;;;;4642257;30;20034;-80
2021/03/06 05:57:14;;;;;;;3.13;0.50;;;-0.90;87.80;;;;;;4659340;30;20062;-80
2021/03/06 05:59:41;;;;;;;2.23;0.40;;;-0.90;87.80;;;;;;4627676;30;20943;-81
2021/03/06 06:02:07;;;;;;;4.00;0.43;;;-0.90;87.90;;;;;;4613239;30;20500;-80
2021/03/06 06:04:35;;;;;;;5.00;0.47;;;-0.90;87.90;;;;;;4619382;30;20078;-81
2021/03/06 06:07:03;;;;;;;3.33;0.40;;;-0.90;88.00;;;;;;4647868;30;20606;-80
2021/03/06 06:09:30;;;;;;;4.60;0.50;;;-0.90;88.10;;;;;;4661817;30;20042;-80
2021/03/06 06:11:56;;;;;;;6.13;0.40;;;-0.90;88.00;;;;;;4635202;30;20047;-81
2021/03/06 06:14:23;;;;;;;2.03;0.30;;;-0.90;88.10;;;;;;4633046;30;20061;-81
2021/03/06 06:16:50;;;;;;;4.60;0.50;;;-0.90;88.10;;;;;;4619133;30;20070;-81
2021/03/06 06:19:17;;;;;;;4.00;0.40;;;-0.90;88.20;;;;;;4659597;30;20054;-82
2021/03/06 06:21:49;;;;;;;1.40;0.40;;;-0.90;88.30;;;;;;4617561;30;20077;-81
2021/03/06 06:24:18;;;;;;;5.55;0.40;;;-0.90;88.30;;;;;;4603240;30;20523;-81
2021/03/06 06:27:02;;;;;;;4.03;0.93;;;-0.80;88.30;;;;;;4633056;30;20054;-81
2021/03/06 06:29:46;;;;;;;3.33;0.40;;;-0.80;88.40;;;;;;4630306;30;20078;-80
2021/03/06 06:32:20;;;;;;;3.30;0.40;;;-0.80;88.30;;;;;;4631478;30;20744;-82
2021/03/06 06:35:05;;;;;;;2.73;0.53;;;-0.70;88.30;;;;;;4628931;30;20050;-81
2021/03/06 06:37:32;;;;;;;4.47;0.50;;;-0.70;88.40;;;;;;4622957;30;20444;-80
2021/03/06 06:40:01;;;;;;;5.13;0.50;;;-0.60;88.20;;;;;;4622899;30;20051;-80
2021/03/06 06:42:35;;;;;;;4.47;0.50;;;-0.50;88.20;;;;;;4632312;30;20038;-80
2021/03/06 06:45:03;;;;;;;4.60;0.60;;;-0.40;88.20;;;;;;4620258;30;20492;-80
2021/03/06 06:47:36;;;;;;;2.87;0.60;;;-0.30;88.10;;;;;;4616720;30;20050;-81
2021/03/06 06:50:05;;;;;;;5.15;0.50;;;-0.20;88.00;;;;;;4626087;30;20054;-79
2021/03/06 06:52:38;;;;;;;1.97;0.50;;;-0.10;87.90;;;;;;4629423;30;20389;-82
2021/03/06 06:55:07;;;;;;;3.73;0.60;;;0.00;87.90;;;;;;4617504;30;20061;-82
2021/03/06 06:57:33;;;;;;;6.10;1.20;;;0.10;87.70;;;;;;4617442;30;20042;-79
2021/03/06 07:00:07;;;;;;;4.67;1.17;;;0.20;87.70;;;;;;4629175;30;20046;-80
2021/03/06 07:02:34;;;;;;;8.43;3.23;;;0.40;87.70;;;;;;4629525;30;20042;-80
2021/03/06 07:05:04;;;;;;;6.37;1.10;;;0.50;87.60;;;;;;4602445;30;20054;-78
2021/03/06 07:07:42;;;;;;;3.80;0.80;;;0.60;87.60;;;;;;4642248;30;20042;-79
2021/03/06 07:10:14;;;;;;;6.63;1.00;;;0.70;87.60;;;;;;4645147;30;20062;-79
2021/03/06 07:12:41;;;;;;;5.90;0.60;;;0.80;87.50;;;;;;4642015;30;20046;-80
2021/03/06 07:15:19;;;;;;;5.30;0.60;;;0.90;87.40;;;;;;4614749;30;20042;-80
2021/03/06 07:17:50;;;;;;;5.27;0.60;;;1.00;87.60;;;;;;4612010;30;20047;-80
2021/03/06 07:20:20;;;;;;;4.40;0.70;;;1.10;87.50;;;;;;4642309;30;20430;-80
2021/03/06 07:22:47;;;;;;;4.03;0.80;;;1.20;87.50;;;;;;4642267;30;20061;-79
2021/03/06 07:25:13;;;;;;;2.63;0.40;;;1.40;87.50;;;;;;4617289;30;20046;-79
2021/03/06 07:27:44;;;;;;;4.53;0.70;;;1.60;87.40;;;;;;4645112;30;20073;-78
2021/03/06 07:30:14;;;;;;;4.67;0.63;;;1.70;87.20;;;;;;4647014;30;20038;-80
2021/03/06 07:32:43;;;;;;;9.10;1.07;;;1.80;87.10;;;;;;4646571;30;20432;-80
2021/03/06 07:35:11;;;;;;;4.80;0.70;;;2.00;87.20;;;;;;4606552;30;20046;-80
2021/03/06 07:37:39;;;;;;;3.80;0.70;;;2.10;87.10;;;;;;4628127;30;20054;-80
2021/03/06 07:40:14;;;;;;;6.77;1.07;;;2.30;87.60;;;;;;4617635;30;20057;-80
2021/03/06 07:42:46;;;;;;;5.23;0.60;;;2.40;87.00;;;;;;4647304;30;20065;-80
2021/03/06 07:45:30;;;;;;;2.53;0.85;;;2.60;86.80;;;;;;4660818;30;20925;-80
2021/03/06 07:48:07;;;;;;;3.87;0.50;;;2.60;87.00;;;;;;4601653;30;20050;-80
2021/03/06 07:50:37;;;;;;;5.87;0.73;;;2.70;87.00;;;;;;4630888;30;20050;-79
2021/03/06 07:53:04;;;;;;;7.23;1.00;;;2.80;87.50;;;;;;4628685;30;20365;-80
2021/03/06 07:55:32;;;;;;;6.07;0.70;;;2.90;88.00;;;;;;4616196;30;20045;-80
2021/03/06 07:58:12;;;;;;;6.50;0.80;;;2.90;88.20;;;;;;4630235;30;20046;-79
2021/03/06 08:00:54;;;;;;;6.23;0.90;;;3.00;88.40;;;;;;4630044;30;20385;-80
2021/03/06 08:03:24;;;;;;;7.18;0.80;;;3.20;88.80;;;;;;4629644;30;20608;-80
2021/03/06 08:05:56;;;;;;;5.57;1.13;;;3.30;88.60;;;;;;4643660;30;20058;-80
2021/03/06 08:08:46;;;;;;;9.93;1.00;;;3.40;88.60;;;;;;4631039;30;20058;-79
2021/03/06 08:11:18;;;;;;;6.30;0.90;;;3.60;88.90;;;;;;4635723;30;20046;-79
2021/03/06 08:13:51;;;;;;;13.90;1.30;;;3.70;88.80;;;;;;4628348;30;20049;-79
2021/03/06 08:19:12;;;;;;;8.00;0.83;;;4.00;88.50;;;;;;4627190;30;20058;-79
2021/03/06 08:21:41;;;;;;;5.00;0.80;;;4.10;88.20;;;;;;4641952;30;20049;-79
2021/03/06 08:24:21;;;;;;;6.43;0.83;;;4.20;88.20;;;;;;4628041;30;20042;-78
2021/03/06 08:27:07;;;;;;;5.00;0.53;;;4.30;88.10;;;;;;4641907;30;20051;-79
2021/03/06 08:29:34;;;;;;;9.57;0.97;;;4.30;87.90;;;;;;4628531;30;20078;-80
2021/03/06 08:32:02;;;;;;;4.50;0.50;;;4.40;87.80;;;;;;4630858;30;20162;-79
2021/03/06 08:34:46;;;;;;;9.60;0.90;;;4.40;87.70;;;;;;4628024;30;20400;-79
2021/03/06 08:37:13;;;;;;;4.90;0.70;;;4.50;87.70;;;;;;4643870;30;20054;-79
2021/03/06 08:39:48;;;;;;;6.40;0.50;;;4.50;87.70;;;;;;4642170;30;20042;-79
2021/03/06 08:42:23;;;;;;;6.20;0.53;;;4.60;87.70;;;;;;4630779;30;20050;-80
2021/03/06 08:44:51;;;;;;;5.30;0.70;;;4.70;87.40;;;;;;4609869;30;20062;-80
2021/03/06 08:47:29;;;;;;;7.03;0.70;;;4.80;87.00;;;;;;4620276;30;20057;-79
2021/03/06 08:49:59;;;;;;;9.87;0.90;;;4.90;86.80;;;;;;4625798;30;20045;-78
2021/03/06 08:52:28;;;;;;;10.10;0.90;;;5.00;86.40;;;;;;4641934;30;20046;-78
2021/03/06 08:54:55;;;;;;;7.13;1.60;;;5.10;86.10;;;;;;4627395;30;20416;-79
2021/03/06 08:57:30;;;;;;;10.93;2.07;;;5.20;85.90;;;;;;4629817;30;20498;-79
2021/03/06 09:00:00;;;;;;;11.17;2.77;;;5.40;85.60;;;;;;4639769;30;20054;-79
2021/03/06 09:02:32;;;;;;;10.13;3.10;;;5.50;85.20;;;;;;4629336;30;20073;-79
2021/03/06 09:05:04;;;;;;;12.07;2.75;;;5.60;84.90;;;;;;4659088;30;20065;-78
2021/03/06 09:07:51;;;;;;;11.17;2.23;;;5.80;84.60;;;;;;5094317;27;20185;-80
2021/03/06 09:10:29;;;;;;;10.10;2.17;;;6.00;84.10;;;;;;5072570;28;20033;-80
2021/03/06 09:12:57;;;;;;;9.37;1.90;;;6.20;84.10;;;;;;5098332;28;20051;-80
2021/03/06 09:15:25;;;;;;;10.90;1.50;;;6.40;81.60;;;;;;5090314;28;20040;-80
2021/03/06 09:17:52;;;;;;;6.70;1.23;;;6.50;81.70;;;;;;5088344;28;20044;-80
2021/03/06 09:20:19;;;;;;;11.60;1.50;;;6.70;81.80;;;;;;5099041;28;20059;-79
2021/03/06 09:22:50;;;;;;;7.97;1.20;;;6.90;81.20;;;;;;5057579;28;20043;-79
2021/03/06 09:25:43;;;;;;;9.60;1.25;;;7.10;79.80;;;;;;5098543;28;20024;-79
2021/03/06 09:28:11;;;;;;;3.63;0.30;;;7.30;78.30;;;;;;5075016;28;20589;-85
2021/03/06 09:30:40;;;;;;;18.83;7.18;;;7.40;75.30;;;;;;5075356;28;20050;-82
2021/03/06 09:33:26;;;;;;;16.90;6.95;;;7.20;73.50;;;;;;5094207;28;20051;-82
2021/03/06 09:36:21;;;;;;;10.63;4.47;;;7.10;73.10;;;;;;5089824;28;20051;-82
2021/03/06 09:38:55;;;;;;;5.80;0.50;;;7.00;72.70;;;;;;5054785;28;20028;-82
2021/03/06 09:41:34;;;;;;;5.55;0.68;;;6.80;70.00;;;;;;5053672;28;20036;-82
2021/03/06 09:44:02;;;;;;;2.90;0.32;;;6.60;70.30;;;;;;5070205;28;20036;-82
2021/03/06 09:46:32;;;;;;;5.37;0.50;;;6.50;70.50;;;;;;5056647;28;20051;-83
2021/03/06 09:49:00;;;;;;;6.90;0.43;;;6.50;70.90;;;;;;5049512;28;20041;-82
2021/03/06 09:51:51;;;;;;;5.20;0.40;;;6.40;69.80;;;;;;5043511;28;20029;-83
2021/03/06 09:54:24;;;;;;;3.70;0.40;;;6.30;67.90;;;;;;5076781;28;20041;-83
2021/03/06 09:56:59;;;;;;;5.13;0.40;;;6.10;67.90;;;;;;5075247;28;20036;-83
2021/03/06 09:59:27;;;;;;;9.73;0.50;;;6.00;68.30;;;;;;5076359;28;20051;-84
2021/03/06 10:01:54;;;;;;;4.40;0.30;;;5.90;68.20;;;;;;5096970;28;20048;-83
2021/03/06 10:04:24;;;;;;;4.50;0.40;;;5.90;68.80;;;;;;5056470;28;20032;-83
2021/03/06 10:06:56;;;;;;;4.90;0.40;;;5.90;68.40;;;;;;5076257;28;20398;-83
2021/03/06 10:09:25;;;;;;;8.30;0.40;;;5.90;67.90;;;;;;5039955;28;20036;-83
2021/03/06 10:12:01;;;;;;;3.83;0.53;;;5.90;67.30;;;;;;5061808;28;20072;-83
2021/03/06 10:14:29;;;;;;;4.17;0.40;;;5.90;67.60;;;;;;5058660;28;20032;-84
2021/03/06 10:17:00;;;;;;;19.83;8.53;;;6.00;67.40;;;;;;5059859;28;20040;-86
2021/03/06 10:19:51;;;;;;;2.27;0.40;;;6.10;65.50;;;;;;5045023;28;20044;-86
2021/03/06 10:22:20;;;;;;;3.87;0.40;;;6.20;64.10;;;;;;5044012;28;20059;-84
2021/03/06 10:24:52;;;;;;;2.30;0.20;;;6.30;64.30;;;;;;5061913;28;20037;-80
2021/03/06 10:27:36;;;;;;;5.80;0.30;;;6.40;63.50;;;;;;5091886;28;20044;-80
2021/03/06 10:30:13;;;;;;;1.80;0.20;;;6.50;63.20;;;;;;5064081;28;20044;-84
2021/03/06 10:33:02;;;;;;;1.90;0.20;;;6.60;62.80;;;;;;5066422;28;20479;-84
2021/03/06 10:35:35;;;;;;;1.83;0.20;;;6.60;62.10;;;;;;5042887;28;20028;-82
2021/03/06 10:38:03;;;;;;;;;;;6.60;62.40;;;;;;5059917;28;20037;-83
2021/03/06 10:40:52;;;;;;;1.20;0.20;;;6.60;61.90;;;;;;5038883;28;19913;-82
2021/03/06 10:43:35;;;;;;;2.57;0.40;;;6.50;61.10;;;;;;5041230;28;20044;-81
2021/03/06 10:46:09;;;;;;;2.90;0.20;;;6.60;62.00;;;;;;5025740;28;20036;-82
2021/03/06 10:48:37;;;;;;;1.13;0.13;;;6.90;62.70;;;;;;5062054;28;20037;-83
2021/03/06 10:51:04;;;;;;;0.98;0.17;;;7.40;64.00;;;;;;5044503;28;20582;-82
2021/03/06 10:53:31;;;;;;;2.05;0.30;;;8.00;63.40;;;;;;5031773;28;20041;-81
2021/03/06 10:55:58;;;;;;;1.35;0.20;;;8.60;60.70;;;;;;5042249;28;20056;-83
2021/03/06 10:58:43;;;;;;;0.95;0.10;;;9.20;58.70;;;;;;5037194;28;20032;-80
2021/03/06 11:01:11;;;;;;;2.05;0.20;;;9.70;56.90;;;;;;5058134;28;20043;-79
2021/03/06 11:03:42;;;;;;;2.28;0.20;;;10.10;55.90;;;;;;5057881;28;20044;-79
2021/03/06 11:06:09;;;;;;;1.85;0.30;;;10.60;54.20;;;;;;5043029;28;20307;-78
2021/03/06 11:08:36;;;;;;;1.98;0.30;;;10.90;52.50;;;;;;5040593;28;20051;-78
2021/03/06 11:11:04;;;;;;;1.60;0.30;;;11.20;49.50;;;;;;5061725;28;20040;-78
2021/03/06 11:13:44;;;;;;;1.65;0.20;;;11.50;50.30;;;;;;5039575;28;20111;-78
2021/03/06 11:16:13;;;;;;;0.90;0.20;;;11.70;48.30;;;;;;5040892;28;20040;-82
2021/03/06 11:18:41;;;;;;;1.23;0.28;;;12.10;48.00;;;;;;5061254;28;20501;-84
2021/03/06 11:21:13;;;;;;;2.72;0.30;;;12.30;45.30;;;;;;5053441;28;20037;-83
2021/03/06 11:23:41;;;;;;;4.13;0.60;;;12.50;45.80;;;;;;5058877;28;20052;-85
2021/03/06 11:26:12;;;;;;;2.60;0.70;;;12.70;44.60;;;;;;5041639;28;20502;-84
2021/03/06 11:28:39;;;;;;;3.17;0.70;;;12.80;44.10;;;;;;5058887;28;20040;-84
2021/03/06 11:31:06;;;;;;;2.60;0.40;;;12.90;43.70;;;;;;5019515;28;20028;-84
2021/03/06 11:33:32;;;;;;;1.15;0.20;;;12.90;44.00;;;;;;5029402;28;20056;-83
2021/03/06 11:35:59;;;;;;;2.17;0.50;;;13.20;42.50;;;;;;5062664;28;20052;-84
2021/03/06 11:38:25;;;;;;;2.00;0.43;;;13.20;42.10;;;;;;5059947;28;20044;-84
2021/03/06 11:40:54;;;;;;;1.23;0.30;;;13.20;42.50;;;;;;5025077;28;20032;-79
2021/03/06 11:43:20;;;;;;;2.67;0.43;;;13.20;41.70;;;;;;5047952;28;20159;-79
2021/03/06 11:45:47;;;;;;;2.53;0.30;;;13.00;42.00;;;;;;5000839;28;20391;-79
2021/03/06 11:48:14;;;;;;;1.48;0.30;;;12.80;42.30;;;;;;5050116;28;20059;-79
2021/03/06 11:50:45;;;;;;;1.48;0.20;;;12.80;42.10;;;;;;5042646;28;20782;-78
2021/03/06 11:53:12;;;;;;;1.92;0.30;;;12.70;42.40;;;;;;5056850;28;20505;-78
2021/03/06 11:55:39;;;;;;;3.63;0.35;;;12.80;42.50;;;;;;5059308;28;20037;-76
2021/03/06 11:58:06;;;;;;;3.20;0.50;;;13.00;43.00;;;;;;5036472;28;20040;-79
2021/03/06 12:00:36;;;;;;;1.88;0.40;;;13.30;42.50;;;;;;5059366;28;20029;-79
2021/03/06 12:03:04;;;;;;;2.70;0.30;;;13.60;41.50;;;;;;5020510;28;20037;-80
2021/03/06 12:05:31;;;;;;;1.85;0.30;;;13.80;42.00;;;;;;5058831;28;20083;-79
2021/03/06 12:07:58;;;;;;;1.58;0.30;;;13.90;40.50;;;;;;5055701;28;20059;-80
2021/03/06 12:10:32;;;;;;;3.22;0.47;;;14.10;40.60;;;;;;5058758;28;20043;-86
2021/03/06 12:12:59;;;;;;;1.67;0.40;;;14.20;39.90;;;;;;5043825;28;20032;-82
2021/03/06 12:15:50;;;;;;;2.40;0.40;;;14.00;39.50;;;;;;5059817;28;20051;-86
2021/03/06 12:18:19;;;;;;;2.08;0.40;;;14.00;39.60;;;;;;5026351;28;20055;-84
2021/03/06 12:20:48;;;;;;;8.35;4.18;;;14.10;39.80;;;;;;5061203;28;20036;-88
2021/03/06 12:23:15;;;;;;;5.20;2.67;;;14.20;39.50;;;;;;5062448;28;20044;-88
2021/03/06 12:25:44;;;;;;;8.75;5.20;;;14.10;39.80;;;;;;5048088;28;20056;-87
2021/03/06 12:28:12;;;;;;;2.88;0.55;;;14.40;40.30;;;;;;5043900;28;20396;-85
2021/03/06 12:30:38;;;;;;;2.72;0.60;;;14.50;39.50;;;;;;5042391;28;20771;-85
2021/03/06 12:33:05;;;;;;;3.05;0.60;;;14.70;39.00;;;;;;5072745;28;20035;-84
2021/03/06 12:35:35;;;;;;;2.40;0.40;;;15.30;38.70;;;;;;5024209;28;20052;-83
2021/03/06 12:38:02;;;;;;;3.03;0.60;;;15.50;37.50;;;;;;5052466;28;20408;-85
2021/03/06 12:40:32;;;;;;;3.70;0.63;;;15.70;37.80;;;;;;5062487;28;20045;-81
2021/03/06 12:42:59;;;;;;;1.67;0.60;;;16.20;36.20;;;;;;5056787;28;20080;-83
2021/03/06 12:45:28;;;;;;;1.77;0.30;;;16.50;36.00;;;;;;5041827;28;20064;-91
2021/03/06 12:47:55;;;;;;;2.45;0.32;;;16.80;35.10;;;;;;5046772;28;20052;-86
2021/03/06 12:50:31;;;;;;;2.00;0.40;;;16.40;34.10;;;;;;5015459;28;20798;-89
2021/03/06 12:52:58;;;;;;;2.63;0.60;;;15.40;36.00;;;;;;5021745;28;20048;-84
2021/03/06 12:55:24;;;;;;;3.45;0.75;;;14.80;37.20;;;;;;5063147;28;20036;-84
2021/03/06 12:57:51;;;;;;;1.90;0.55;;;14.70;38.70;;;;;;5028194;28;20395;-85
2021/03/06 13:00:21;;;;;;;2.35;0.40;;;15.00;37.80;;;;;;5040391;28;20499;-84
2021/03/06 13:02:48;;;;;;;2.83;0.40;;;15.60;37.50;;;;;;5061067;28;20059;-82
2021/03/06 13:05:20;;;;;;;1.33;0.30;;;16.20;36.90;;;;;;5043145;28;20045;-87
2021/03/06 13:07:47;;;;;;;2.28;0.30;;;16.70;34.30;;;;;;5033497;28;20419;-88
2021/03/06 13:10:16;;;;;;;1.40;0.30;;;17.10;34.40;;;;;;5043086;28;20906;-88